sensor_id;sensor_type;location;lat;lon;timestamp;pressure;altitude;pressure_sealevel;temperature;humidity
70902;BME280;58548;47.210;8.618;2023-01-30T00:01:20;94656.16;;;3.33;37.73
70902;BME280;58548;47.210;8.618;2023-01-30T00:03:46;94797.53;;;4.22;37.83
70902;BME280;58548;47.210;8.618;2023-01-30T00:06:15;94757.63;;;3.96;37.87
70902;BME280;58548;47.210;8.618;2023-01-30T00:08:42;94766.19;;;3.96;37.63
70902;BME280;58548;47.210;8.618;2023-01-30T00:11:13;94765.09;;;3.99;37.21
70902;BME280;58548;47.210;8.618;2023-01-30T00:13:42;94746.84;;;3.81;37.17
70902;BME280;58548;47.210;8.618;2023-01-30T00:16:09;94788.78;;;3.94;37.87
70902;BME280;58548;47.210;8.618;2023-01-30T00:18:37;94785.25;;;3.95;37.28
70902;BME280;58548;47.210;8.618;2023-01-30T00:21:08;94779.53;;;3.91;37.37
70902;BME280;58548;47.210;8.618;2023-01-30T00:23:37;94777.88;;;3.90;37.73
70902;BME280;58548;47.210;8.618;2023-01-30T00:26:04;94784.41;;;3.95;37.83
70902;BME280;58548;47.210;8.618;2023-01-30T00:28:31;94648.16;;;3.05;37.26
70902;BME280;58548;47.210;8.618;2023-01-30T00:31:00;94792.56;;;3.90;38.45
70902;BME280;58548;47.210;8.618;2023-01-30T00:33:26;94789.28;;;3.88;37.39
70902;BME280;58548;47.210;8.618;2023-01-30T00:35:54;94652.34;;;2.96;38.37
70902;BME280;58548;47.210;8.618;2023-01-30T00:38:25;94787.78;;;3.85;38.03
70902;BME280;58548;47.210;8.618;2023-01-30T00:40:51;94742.13;;;3.55;37.35
70902;BME280;58548;47.210;8.618;2023-01-30T00:43:19;94663.66;;;3.05;37.46
70902;BME280;58548;47.210;8.618;2023-01-30T00:46:12;94686.53;;;3.20;37.66
70902;BME280;58548;47.210;8.618;2023-01-30T00:49:15;94779.84;;;3.77;37.90
70902;BME280;58548;47.210;8.618;2023-01-30T00:51:40;94789.38;;;3.76;37.74
70902;BME280;58548;47.210;8.618;2023-01-30T00:54:06;94786.19;;;3.63;38.28
70902;BME280;58548;47.210;8.618;2023-01-30T00:56:33;94633.94;;;2.80;37.69
70902;BME280;58548;47.210;8.618;2023-01-30T00:59:03;94778.63;;;3.71;38.15
70902;BME280;58548;47.210;8.618;2023-01-30T01:01:29;94778.31;;;3.65;37.47
70902;BME280;58548;47.210;8.618;2023-01-30T01:03:57;94623.00;;;2.66;37.80
70902;BME280;58548;47.210;8.618;2023-01-30T01:06:23;94771.22;;;3.57;38.23
70902;BME280;58548;47.210;8.618;2023-01-30T01:08:51;94769.84;;;3.53;38.04
70902;BME280;58548;47.210;8.618;2023-01-30T01:11:17;94750.78;;;3.44;37.88
70902;BME280;58548;47.210;8.618;2023-01-30T01:13:53;94758.69;;;3.52;38.63
70902;BME280;58548;47.210;8.618;2023-01-30T01:16:23;94627.66;;;2.72;38.22
70902;BME280;58548;47.210;8.618;2023-01-30T01:18:49;94750.81;;;3.54;37.96
70902;BME280;58548;47.210;8.618;2023-01-30T01:21:16;94621.69;;;2.72;38.24
70902;BME280;58548;47.210;8.618;2023-01-30T01:23:52;94603.69;;;2.61;37.97
70902;BME280;58548;47.210;8.618;2023-01-30T01:26:19;94723.28;;;3.33;38.41
70902;BME280;58548;47.210;8.618;2023-01-30T01:28:45;94615.88;;;2.59;37.94
70902;BME280;58548;47.210;8.618;2023-01-30T01:31:16;94615.09;;;2.58;38.48
70902;BME280;58548;47.210;8.618;2023-01-30T01:33:44;94752.13;;;3.38;37.58
70902;BME280;58548;47.210;8.618;2023-01-30T01:36:10;94746.97;;;3.38;37.74
70902;BME280;58548;47.210;8.618;2023-01-30T01:38:36;94744.19;;;3.30;37.82
70902;BME280;58548;47.210;8.618;2023-01-30T01:41:06;94732.47;;;3.26;37.90
70902;BME280;58548;47.210;8.618;2023-01-30T01:43:58;94743.34;;;3.29;38.05
70902;BME280;58548;47.210;8.618;2023-01-30T01:46:50;94743.75;;;3.25;38.51
70902;BME280;58548;47.210;8.618;2023-01-30T01:49:26;94744.19;;;3.30;37.92
70902;BME280;58548;47.210;8.618;2023-01-30T01:52:04;94747.47;;;3.32;38.35
70902;BME280;58548;47.210;8.618;2023-01-30T01:55:09;94738.72;;;3.23;38.28
70902;BME280;58548;47.210;8.618;2023-01-30T01:57:35;94745.00;;;3.30;38.64
70902;BME280;58548;47.210;8.618;2023-01-30T02:00:16;94606.84;;;2.43;38.21
70902;BME280;58548;47.210;8.618;2023-01-30T02:03:05;94594.28;;;2.29;38.85
70902;BME280;58548;47.210;8.618;2023-01-30T02:05:40;94747.97;;;3.26;38.85
70902;BME280;58548;47.210;8.618;2023-01-30T02:08:42;94736.00;;;3.25;38.96
70902;BME280;58548;47.210;8.618;2023-01-30T02:11:18;94737.91;;;3.23;38.64
70902;BME280;58548;47.210;8.618;2023-01-30T02:13:49;94726.50;;;3.25;38.36
70902;BME280;58548;47.210;8.618;2023-01-30T02:16:17;94616.03;;;2.57;38.52
70902;BME280;58548;47.210;8.618;2023-01-30T02:18:47;94728.69;;;3.30;39.62
70902;BME280;58548;47.210;8.618;2023-01-30T02:24:19;94744.25;;;3.40;39.55
70902;BME280;58548;47.210;8.618;2023-01-30T02:27:32;94738.34;;;3.59;39.30
70902;BME280;58548;47.210;8.618;2023-01-30T02:35:40;94728.66;;;4.02;40.09
70902;BME280;58548;47.210;8.618;2023-01-30T02:38:15;94736.84;;;4.17;39.38
70902;BME280;58548;47.210;8.618;2023-01-30T02:46:19;94743.53;;;4.39;39.14
70902;BME280;58548;47.210;8.618;2023-01-30T02:48:55;94738.63;;;4.46;39.02
70902;BME280;58548;47.210;8.618;2023-01-30T02:51:43;94738.53;;;4.57;38.73
70902;BME280;58548;47.210;8.618;2023-01-30T02:54:13;94700.13;;;4.43;38.70
70902;BME280;58548;47.210;8.618;2023-01-30T02:59:23;94742.56;;;4.79;39.45
70902;BME280;58548;47.210;8.618;2023-01-30T03:01:59;94769.81;;;4.74;39.22
70902;BME280;58548;47.210;8.618;2023-01-30T03:12:48;94648.31;;;3.54;38.51
70902;BME280;58548;47.210;8.618;2023-01-30T03:15:44;94793.34;;;4.41;39.12
70902;BME280;58548;47.210;8.618;2023-01-30T03:18:16;94690.66;;;3.83;39.02
70902;BME280;58548;47.210;8.618;2023-01-30T03:20:43;94681.28;;;3.82;38.70
70902;BME280;58548;47.210;8.618;2023-01-30T03:23:11;94675.59;;;3.88;39.07
70902;BME280;58548;47.210;8.618;2023-01-30T03:25:43;94774.47;;;4.60;39.08
70902;BME280;58548;47.210;8.618;2023-01-30T03:28:16;94790.78;;;4.71;39.20
70902;BME280;58548;47.210;8.618;2023-01-30T03:30:45;94828.66;;;4.91;39.10
70902;BME280;58548;47.210;8.618;2023-01-30T03:33:11;94830.31;;;4.92;38.98
70902;BME280;58548;47.210;8.618;2023-01-30T03:35:37;94833.84;;;4.91;39.32
70902;BME280;58548;47.210;8.618;2023-01-30T03:38:06;94839.97;;;4.90;39.14
70902;BME280;58548;47.210;8.618;2023-01-30T03:40:36;94861.09;;;4.95;39.42
70902;BME280;58548;47.210;8.618;2023-01-30T03:43:02;94867.91;;;4.96;39.51
70902;BME280;58548;47.210;8.618;2023-01-30T03:45:28;94875.69;;;4.96;39.54
70902;BME280;58548;47.210;8.618;2023-01-30T03:47:54;94857.81;;;5.13;39.40
70902;BME280;58548;47.210;8.618;2023-01-30T03:50:22;94714.28;;;4.38;39.54
70902;BME280;58548;47.210;8.618;2023-01-30T03:52:48;94791.34;;;4.94;38.84
70902;BME280;58548;47.210;8.618;2023-01-30T03:55:14;94839.28;;;5.47;39.50
70902;BME280;58548;47.210;8.618;2023-01-30T03:57:40;94691.94;;;4.77;39.66
70902;BME280;58548;47.210;8.618;2023-01-30T04:00:07;94823.44;;;5.60;39.42
70902;BME280;58548;47.210;8.618;2023-01-30T04:02:34;94810.16;;;5.63;38.96
70902;BME280;58548;47.210;8.618;2023-01-30T04:05:04;94694.78;;;4.83;39.32
70902;BME280;58548;47.210;8.618;2023-01-30T04:07:35;94830.63;;;5.66;39.47
70902;BME280;58548;47.210;8.618;2023-01-30T04:10:01;94745.38;;;5.25;39.15
70902;BME280;58548;47.210;8.618;2023-01-30T04:12:29;94779.22;;;5.62;39.11
70902;BME280;58548;47.210;8.618;2023-01-30T04:14:55;94838.09;;;5.79;39.02
70902;BME280;58548;47.210;8.618;2023-01-30T04:17:26;94705.53;;;4.79;39.11
70902;BME280;58548;47.210;8.618;2023-01-30T04:19:51;94699.81;;;4.85;39.18
70902;BME280;58548;47.210;8.618;2023-01-30T04:22:20;94823.28;;;5.62;39.01
70902;BME280;58548;47.210;8.618;2023-01-30T04:24:48;94840.69;;;5.79;39.28
70902;BME280;58548;47.210;8.618;2023-01-30T04:27:16;94817.06;;;5.82;38.75
70902;BME280;58548;47.210;8.618;2023-01-30T04:29:42;94664.59;;;5.12;38.12
70902;BME280;58548;47.210;8.618;2023-01-30T04:32:10;94693.00;;;5.32;38.18
70902;BME280;58548;47.210;8.618;2023-01-30T04:34:36;94665.09;;;5.25;38.06
70902;BME280;58548;47.210;8.618;2023-01-30T04:37:02;94659.31;;;5.04;38.55
70902;BME280;58548;47.210;8.618;2023-01-30T04:39:31;94707.66;;;5.13;38.46
70902;BME280;58548;47.210;8.618;2023-01-30T04:42:00;94818.66;;;5.93;38.26
70902;BME280;58548;47.210;8.618;2023-01-30T04:44:26;94801.78;;;5.79;38.08
70902;BME280;58548;47.210;8.618;2023-01-30T04:46:52;94794.03;;;5.79;38.38
70902;BME280;58548;47.210;8.618;2023-01-30T04:49:21;94783.53;;;5.81;37.96
70902;BME280;58548;47.210;8.618;2023-01-30T04:51:51;94804.22;;;5.91;38.29
70902;BME280;58548;47.210;8.618;2023-01-30T04:54:19;94790.66;;;5.97;38.23
70902;BME280;58548;47.210;8.618;2023-01-30T04:56:45;94750.84;;;5.70;38.25
70902;BME280;58548;47.210;8.618;2023-01-30T04:59:14;94643.59;;;5.15;37.89
70902;BME280;58548;47.210;8.618;2023-01-30T05:01:40;94717.78;;;5.72;38.36
70902;BME280;58548;47.210;8.618;2023-01-30T05:04:08;94615.72;;;4.99;38.08
70902;BME280;58548;47.210;8.618;2023-01-30T05:06:35;94776.66;;;5.89;37.96
70902;BME280;58548;47.210;8.618;2023-01-30T05:09:01;94746.69;;;5.77;37.88
70902;BME280;58548;47.210;8.618;2023-01-30T05:11:33;94710.22;;;5.61;37.84
70902;BME280;58548;47.210;8.618;2023-01-30T05:13:59;94703.69;;;5.56;37.85
70902;BME280;58548;47.210;8.618;2023-01-30T05:16:25;94581.97;;;4.91;37.71
70902;BME280;58548;47.210;8.618;2023-01-30T05:18:51;94711.84;;;5.89;37.87
70902;BME280;58548;47.210;8.618;2023-01-30T05:21:24;94673.84;;;5.80;37.80
70902;BME280;58548;47.210;8.618;2023-01-30T05:23:51;94688.25;;;5.93;37.94
70902;BME280;58548;47.210;8.618;2023-01-30T05:26:21;94577.44;;;5.03;38.20
70902;BME280;58548;47.210;8.618;2023-01-30T05:28:52;94598.94;;;5.03;38.21
70902;BME280;58548;47.210;8.618;2023-01-30T05:31:23;94701.88;;;5.67;38.03
70902;BME280;58548;47.210;8.618;2023-01-30T05:33:50;94709.94;;;5.64;38.38
70902;BME280;58548;47.210;8.618;2023-01-30T05:36:19;94669.00;;;5.39;38.54
70902;BME280;58548;47.210;8.618;2023-01-30T05:38:46;94693.59;;;5.53;37.95
70902;BME280;58548;47.210;8.618;2023-01-30T05:41:13;94678.41;;;5.31;38.00
70902;BME280;58548;47.210;8.618;2023-01-30T05:43:40;94587.63;;;4.66;37.80
70902;BME280;58548;47.210;8.618;2023-01-30T05:46:10;94712.78;;;5.33;37.88
70902;BME280;58548;47.210;8.618;2023-01-30T05:48:41;94592.72;;;4.48;38.45
70902;BME280;58548;47.210;8.618;2023-01-30T05:53:44;94694.66;;;4.85;37.95
70902;BME280;58548;47.210;8.618;2023-01-30T05:56:14;94575.50;;;4.10;38.19
70902;BME280;58548;47.210;8.618;2023-01-30T05:58:43;94719.13;;;5.01;38.17
70902;BME280;58548;47.210;8.618;2023-01-30T06:01:11;94690.53;;;4.92;38.15
70902;BME280;58548;47.210;8.618;2023-01-30T06:03:38;94483.03;;;3.64;37.98
70902;BME280;58548;47.210;8.618;2023-01-30T06:06:06;94707.28;;;5.08;38.07
70902;BME280;58548;47.210;8.618;2023-01-30T06:08:34;94698.16;;;5.04;38.62
70902;BME280;58548;47.210;8.618;2023-01-30T06:11:07;94643.47;;;4.69;38.23
70902;BME280;58548;47.210;8.618;2023-01-30T06:13:33;94588.94;;;4.03;38.54
70902;BME280;58548;47.210;8.618;2023-01-30T06:16:00;94731.44;;;4.79;38.99
70902;BME280;58548;47.210;8.618;2023-01-30T06:18:28;94658.63;;;4.34;39.00
70902;BME280;58548;47.210;8.618;2023-01-30T06:20:59;94578.34;;;3.87;39.06
70902;BME280;58548;47.210;8.618;2023-01-30T06:23:25;94715.38;;;4.65;38.86
70902;BME280;58548;47.210;8.618;2023-01-30T06:25:52;94671.81;;;4.31;38.70
70902;BME280;58548;47.210;8.618;2023-01-30T06:28:21;94746.13;;;4.68;38.47
70902;BME280;58548;47.210;8.618;2023-01-30T06:30:48;94749.66;;;4.67;38.43
70902;BME280;58548;47.210;8.618;2023-01-30T06:33:17;94647.31;;;3.96;39.13
70902;BME280;58548;47.210;8.618;2023-01-30T06:35:46;94758.25;;;4.58;38.68
70902;BME280;58548;47.210;8.618;2023-01-30T06:38:16;94709.91;;;4.29;38.60
70902;BME280;58548;47.210;8.618;2023-01-30T06:40:44;94731.16;;;4.43;39.02
70902;BME280;58548;47.210;8.618;2023-01-30T06:43:11;94737.16;;;4.43;38.80
70902;BME280;58548;47.210;8.618;2023-01-30T06:45:42;94732.50;;;4.37;38.87
70902;BME280;58548;47.210;8.618;2023-01-30T06:48:08;94589.59;;;3.46;38.30
70902;BME280;58548;47.210;8.618;2023-01-30T06:50:35;94548.25;;;3.27;39.04
70902;BME280;58548;47.210;8.618;2023-01-30T06:53:03;94671.53;;;3.95;39.35
70902;BME280;58548;47.210;8.618;2023-01-30T06:55:29;94672.91;;;3.99;39.13
70902;BME280;58548;47.210;8.618;2023-01-30T06:58:06;94739.72;;;4.23;39.73
70902;BME280;58548;47.210;8.618;2023-01-30T07:00:39;94738.25;;;4.31;39.99
70902;BME280;58548;47.210;8.618;2023-01-30T07:03:13;94734.72;;;4.32;39.46
70902;BME280;58548;47.210;8.618;2023-01-30T07:05:41;94656.81;;;3.86;39.47
70902;BME280;58548;47.210;8.618;2023-01-30T07:08:10;94751.88;;;4.43;40.45
70902;BME280;58548;47.210;8.618;2023-01-30T07:10:42;94777.31;;;4.47;40.35
70902;BME280;58548;47.210;8.618;2023-01-30T07:13:09;94750.59;;;4.27;40.67
70902;BME280;58548;47.210;8.618;2023-01-30T07:15:35;94805.25;;;4.73;40.03
70902;BME280;58548;47.210;8.618;2023-01-30T07:18:00;94812.88;;;4.85;40.30
70902;BME280;58548;47.210;8.618;2023-01-30T07:20:27;94759.75;;;4.61;40.25
70902;BME280;58548;47.210;8.618;2023-01-30T07:22:55;94816.13;;;5.06;40.58
70902;BME280;58548;47.210;8.618;2023-01-30T07:25:23;94791.75;;;4.99;40.29
70902;BME280;58548;47.210;8.618;2023-01-30T07:27:58;94823.06;;;5.25;39.43
70902;BME280;58548;47.210;8.618;2023-01-30T07:30:28;94830.56;;;5.28;39.46
70902;BME280;58548;47.210;8.618;2023-01-30T07:32:58;94814.34;;;5.36;39.67
70902;BME280;58548;47.210;8.618;2023-01-30T07:35:27;94832.44;;;5.46;39.60
70902;BME280;58548;47.210;8.618;2023-01-30T07:37:58;94841.28;;;5.53;39.18
70902;BME280;58548;47.210;8.618;2023-01-30T07:40:25;94837.59;;;5.56;39.39
70902;BME280;58548;47.210;8.618;2023-01-30T07:45:29;94712.63;;;4.77;39.57
70902;BME280;58548;47.210;8.618;2023-01-30T07:47:58;94730.00;;;5.14;40.20
70902;BME280;58548;47.210;8.618;2023-01-30T07:50:26;94851.44;;;6.32;40.03
70902;BME280;58548;47.210;8.618;2023-01-30T07:52:52;94773.91;;;6.47;39.58
70902;BME280;58548;47.210;8.618;2023-01-30T07:55:18;94881.97;;;7.75;38.11
70902;BME280;58548;47.210;8.618;2023-01-30T07:57:44;94742.41;;;7.49;36.93
70902;BME280;58548;47.210;8.618;2023-01-30T08:00:13;94856.56;;;8.56;36.00
70902;BME280;58548;47.210;8.618;2023-01-30T08:02:40;94813.69;;;8.42;35.02
70902;BME280;58548;47.210;8.618;2023-01-30T08:05:06;94718.88;;;7.93;35.03
70902;BME280;58548;47.210;8.618;2023-01-30T08:07:32;94722.00;;;8.05;34.78
70902;BME280;58548;47.210;8.618;2023-01-30T08:09:58;94733.34;;;8.47;34.94
70902;BME280;58548;47.210;8.618;2023-01-30T08:12:29;94821.31;;;9.61;34.66
70902;BME280;58548;47.210;8.618;2023-01-30T08:14:55;94782.06;;;10.10;33.61
70902;BME280;58548;47.210;8.618;2023-01-30T08:17:23;94812.66;;;10.96;32.70
70902;BME280;58548;47.210;8.618;2023-01-30T08:19:49;94783.13;;;11.49;31.86
70902;BME280;58548;47.210;8.618;2023-01-30T08:22:18;94741.41;;;12.01;30.74
70902;BME280;58548;47.210;8.618;2023-01-30T08:24:43;94827.22;;;13.24;28.70
70902;BME280;58548;47.210;8.618;2023-01-30T08:27:14;94729.16;;;13.25;28.61
70902;BME280;58548;47.210;8.618;2023-01-30T08:29:43;94730.25;;;13.94;27.24
70902;BME280;58548;47.210;8.618;2023-01-30T08:32:12;94851.00;;;15.27;26.38
70902;BME280;58548;47.210;8.618;2023-01-30T08:34:38;94809.75;;;15.74;25.26
70902;BME280;58548;47.210;8.618;2023-01-30T08:37:04;94835.59;;;16.45;24.42
70902;BME280;58548;47.210;8.618;2023-01-30T08:39:30;94733.28;;;16.21;23.66
70902;BME280;58548;47.210;8.618;2023-01-30T08:41:56;94732.72;;;16.58;22.98
70902;BME280;58548;47.210;8.618;2023-01-30T08:44:24;94844.47;;;17.48;21.51
70902;BME280;58548;47.210;8.618;2023-01-30T08:46:50;94741.97;;;17.13;22.20
70902;BME280;58548;47.210;8.618;2023-01-30T08:49:16;94722.47;;;17.14;20.60
70902;BME280;58548;47.210;8.618;2023-01-30T08:51:41;94825.59;;;17.44;20.86
70902;BME280;58548;47.210;8.618;2023-01-30T08:54:07;94856.03;;;17.15;20.60
70902;BME280;58548;47.210;8.618;2023-01-30T08:56:38;94755.84;;;15.97;21.21
70902;BME280;58548;47.210;8.618;2023-01-30T08:59:04;94755.47;;;15.60;21.95
70902;BME280;58548;47.210;8.618;2023-01-30T09:01:30;94836.41;;;16.38;22.36
70902;BME280;58548;47.210;8.618;2023-01-30T09:03:59;94753.41;;;16.02;21.65
70902;BME280;58548;47.210;8.618;2023-01-30T09:06:25;94726.00;;;16.17;21.40
70902;BME280;58548;47.210;8.618;2023-01-30T09:08:51;94843.50;;;17.03;21.06
70902;BME280;58548;47.210;8.618;2023-01-30T09:11:21;94824.84;;;17.05;20.66
70902;BME280;58548;47.210;8.618;2023-01-30T09:13:55;94729.16;;;16.78;20.82
70902;BME280;58548;47.210;8.618;2023-01-30T09:16:20;94834.06;;;17.78;20.29
70902;BME280;58548;47.210;8.618;2023-01-30T09:18:48;94835.34;;;18.20;20.56
70902;BME280;58548;47.210;8.618;2023-01-30T09:21:15;94833.66;;;18.26;19.88
70902;BME280;58548;47.210;8.618;2023-01-30T09:23:41;94845.00;;;17.82;19.92
70902;BME280;58548;47.210;8.618;2023-01-30T09:26:09;94854.41;;;17.14;19.52
70902;BME280;58548;47.210;8.618;2023-01-30T09:28:35;94736.84;;;15.75;20.70
70902;BME280;58548;47.210;8.618;2023-01-30T09:31:01;94758.31;;;15.51;21.34
70902;BME280;58548;47.210;8.618;2023-01-30T09:33:30;94856.13;;;16.16;22.00
70902;BME280;58548;47.210;8.618;2023-01-30T09:35:56;94783.00;;;16.04;21.41
70902;BME280;58548;47.210;8.618;2023-01-30T09:38:22;94771.03;;;16.08;20.74
70902;BME280;58548;47.210;8.618;2023-01-30T09:43:38;94876.72;;;16.59;21.42
70902;BME280;58548;47.210;8.618;2023-01-30T09:54:43;94870.56;;;18.76;19.08
70902;BME280;58548;47.210;8.618;2023-01-30T09:57:19;94880.25;;;19.20;18.78
70902;BME280;58548;47.210;8.618;2023-01-30T10:00:12;94885.47;;;19.69;18.00
70902;BME280;58548;47.210;8.618;2023-01-30T10:10:49;94873.72;;;21.36;17.33
70902;BME280;58548;47.210;8.618;2023-01-30T10:16:09;94876.16;;;21.38;16.85
70902;BME280;58548;47.210;8.618;2023-01-30T10:21:52;94875.97;;;19.92;16.98
70902;BME280;58548;47.210;8.618;2023-01-30T10:27:01;94875.44;;;18.61;18.28
70902;BME280;58548;47.210;8.618;2023-01-30T10:29:36;94895.00;;;18.34;18.31
70902;BME280;58548;47.210;8.618;2023-01-30T10:32:18;94892.44;;;18.02;18.47
70902;BME280;58548;47.210;8.618;2023-01-30T10:34:51;94884.00;;;17.55;19.24
70902;BME280;58548;47.210;8.618;2023-01-30T10:37:23;94886.94;;;17.08;19.48
70902;BME280;58548;47.210;8.618;2023-01-30T10:42:28;94743.34;;;15.45;20.77
70902;BME280;58548;47.210;8.618;2023-01-30T10:45:12;94855.53;;;15.73;21.07
70902;BME280;58548;47.210;8.618;2023-01-30T10:50:23;94892.00;;;15.70;21.88
70902;BME280;58548;47.210;8.618;2023-01-30T10:53:03;94907.00;;;16.03;21.82
70902;BME280;58548;47.210;8.618;2023-01-30T10:55:47;94879.44;;;15.92;21.29
70902;BME280;58548;47.210;8.618;2023-01-30T11:01:00;94886.72;;;16.23;21.16
70902;BME280;58548;47.210;8.618;2023-01-30T11:03:54;94790.31;;;15.75;21.32
70902;BME280;58548;47.210;8.618;2023-01-30T11:06:23;94728.56;;;15.44;21.43
70902;BME280;58548;47.210;8.618;2023-01-30T11:08:54;94811.16;;;15.97;21.95
70902;BME280;58548;47.210;8.618;2023-01-30T11:14:07;94693.28;;;15.72;21.95
70902;BME280;58548;47.210;8.618;2023-01-30T11:19:13;94819.03;;;17.79;21.43
70902;BME280;58548;47.210;8.618;2023-01-30T11:21:40;94771.41;;;18.11;20.61
70902;BME280;58548;47.210;8.618;2023-01-30T11:24:18;94693.78;;;18.24;20.01
70902;BME280;58548;47.210;8.618;2023-01-30T11:26:46;94679.59;;;18.37;19.44
70902;BME280;58548;47.210;8.618;2023-01-30T11:29:30;94800.03;;;19.31;18.97
70902;BME280;58548;47.210;8.618;2023-01-30T11:32:25;94797.09;;;19.51;19.24
70902;BME280;58548;47.210;8.618;2023-01-30T11:37:42;94759.53;;;19.31;18.43
70902;BME280;58548;47.210;8.618;2023-01-30T11:43:01;94727.84;;;18.81;18.07
70902;BME280;58548;47.210;8.618;2023-01-30T11:45:27;94636.19;;;17.77;18.20
70902;BME280;58548;47.210;8.618;2023-01-30T11:48:03;94627.50;;;17.51;18.31
70902;BME280;58548;47.210;8.618;2023-01-30T11:50:54;94747.94;;;18.33;18.82
70902;BME280;58548;47.210;8.618;2023-01-30T11:53:48;94711.16;;;18.32;18.46
70902;BME280;58548;47.210;8.618;2023-01-30T11:56:22;94719.06;;;18.50;17.85
70902;BME280;58548;47.210;8.618;2023-01-30T11:58:57;94712.25;;;18.73;17.71
70902;BME280;58548;47.210;8.618;2023-01-30T12:01:35;94502.09;;;17.72;18.10
70902;BME280;58548;47.210;8.618;2023-01-30T12:04:07;94681.13;;;19.41;17.45
70902;BME280;58548;47.210;8.618;2023-01-30T12:06:40;94671.50;;;20.12;17.51
70902;BME280;58548;47.210;8.618;2023-01-30T12:09:45;94651.78;;;20.94;17.28
70902;BME280;58548;47.210;8.618;2023-01-30T12:15:02;94554.19;;;21.80;16.07
70902;BME280;58548;47.210;8.618;2023-01-30T12:17:48;94623.03;;;23.14;15.35
70902;BME280;58548;47.210;8.618;2023-01-30T12:23:20;94646.16;;;24.52;14.29
70902;BME280;58548;47.210;8.618;2023-01-30T12:31:26;94540.69;;;24.91;13.66
70902;BME280;58548;47.210;8.618;2023-01-30T12:33:57;94638.16;;;25.82;13.47
70902;BME280;58548;47.210;8.618;2023-01-30T12:45:03;94655.16;;;27.12;12.73
70902;BME280;58548;47.210;8.618;2023-01-30T12:47:47;94663.69;;;27.19;12.07
70902;BME280;58548;47.210;8.618;2023-01-30T12:58:31;94644.44;;;27.47;11.24
70902;BME280;58548;47.210;8.618;2023-01-30T13:03:48;94662.47;;;26.56;12.40
70902;BME280;58548;47.210;8.618;2023-01-30T13:11:56;94669.19;;;24.84;12.83
70902;BME280;58548;47.210;8.618;2023-01-30T13:25:30;94679.50;;;20.87;16.49
70902;BME280;58548;47.210;8.618;2023-01-30T13:28:05;94521.78;;;19.62;16.46
70902;BME280;58548;47.210;8.618;2023-01-30T13:30:34;94630.22;;;20.45;16.84
70902;BME280;58548;47.210;8.618;2023-01-30T13:33:10;94573.94;;;20.43;17.38
70902;BME280;58548;47.210;8.618;2023-01-30T13:35:50;94663.28;;;21.34;16.87
70902;BME280;58548;47.210;8.618;2023-01-30T13:38:24;94556.47;;;20.76;16.31
70902;BME280;58548;47.210;8.618;2023-01-30T13:40:59;94668.09;;;21.54;15.81
70902;BME280;58548;47.210;8.618;2023-01-30T13:43:37;94662.63;;;21.61;16.08
70902;BME280;58548;47.210;8.618;2023-01-30T13:46:08;94583.94;;;21.04;16.19
70902;BME280;58548;47.210;8.618;2023-01-30T13:51:39;94643.84;;;20.94;16.63
70902;BME280;58548;47.210;8.618;2023-01-30T14:00:28;94658.78;;;20.14;17.54
70902;BME280;58548;47.210;8.618;2023-01-30T14:08:34;94659.34;;;19.51;18.09
70902;BME280;58548;47.210;8.618;2023-01-30T14:11:03;94520.16;;;18.48;18.58
70902;BME280;58548;47.210;8.618;2023-01-30T14:13:33;94669.28;;;18.90;18.72
70902;BME280;58548;47.210;8.618;2023-01-30T14:16:04;94670.03;;;18.36;19.73
70902;BME280;58548;47.210;8.618;2023-01-30T14:18:35;94666.38;;;17.62;20.26
70902;BME280;58548;47.210;8.618;2023-01-30T14:23:54;94520.09;;;15.74;21.67
70902;BME280;58548;47.210;8.618;2023-01-30T14:37:29;94664.75;;;14.48;24.75
70902;BME280;58548;47.210;8.618;2023-01-30T14:39:59;94569.59;;;13.64;25.09
70902;BME280;58548;47.210;8.618;2023-01-30T14:42:29;94624.59;;;13.92;25.11
70902;BME280;58548;47.210;8.618;2023-01-30T14:47:31;94651.88;;;13.56;25.82
70902;BME280;58548;47.210;8.618;2023-01-30T14:49:59;94658.69;;;13.44;26.42
70902;BME280;58548;47.210;8.618;2023-01-30T14:52:38;94670.81;;;13.45;26.47
70902;BME280;58548;47.210;8.618;2023-01-30T14:55:23;94563.06;;;12.26;27.70
70902;BME280;58548;47.210;8.618;2023-01-30T14:58:01;94567.53;;;12.10;28.82
70902;BME280;58548;47.210;8.618;2023-01-30T15:00:37;94520.88;;;11.77;29.12
70902;BME280;58548;47.210;8.618;2023-01-30T15:03:19;94700.47;;;12.73;29.41
70902;BME280;58548;47.210;8.618;2023-01-30T15:05:47;94703.50;;;12.70;30.05
70902;BME280;58548;47.210;8.618;2023-01-30T15:08:20;94692.16;;;12.26;31.42
70902;BME280;58548;47.210;8.618;2023-01-30T15:24:39;94709.34;;;11.84;31.50
70902;BME280;58548;47.210;8.618;2023-01-30T15:32:27;94603.13;;;11.08;31.99
70902;BME280;58548;47.210;8.618;2023-01-30T15:35:00;94657.22;;;11.22;31.90
70902;BME280;58548;47.210;8.618;2023-01-30T15:37:37;94723.25;;;11.69;31.53
70902;BME280;58548;47.210;8.618;2023-01-30T15:40:19;94697.44;;;11.51;31.67
70902;BME280;58548;47.210;8.618;2023-01-30T15:42:50;94736.44;;;11.76;31.51
70902;BME280;58548;47.210;8.618;2023-01-30T15:51:07;94738.59;;;11.57;32.55
70902;BME280;58548;47.210;8.618;2023-01-30T15:53:44;94743.66;;;11.74;32.17
70902;BME280;58548;47.210;8.618;2023-01-30T15:56:17;94733.81;;;11.76;31.46
70902;BME280;58548;47.210;8.618;2023-01-30T15:58:50;94630.69;;;10.95;32.04
70902;BME280;58548;47.210;8.618;2023-01-30T16:01:20;94673.88;;;11.06;32.17
70902;BME280;58548;47.210;8.618;2023-01-30T16:03:47;94732.44;;;11.50;31.59
70902;BME280;58548;47.210;8.618;2023-01-30T16:11:33;94737.31;;;11.53;32.09
70902;BME280;58548;47.210;8.618;2023-01-30T16:14:05;94736.50;;;11.38;31.73
70902;BME280;58548;47.210;8.618;2023-01-30T16:16:34;94750.63;;;11.28;32.22
70902;BME280;58548;47.210;8.618;2023-01-30T16:19:06;94761.03;;;11.37;31.95
70902;BME280;58548;47.210;8.618;2023-01-30T16:21:38;94628.75;;;10.59;31.99
70902;BME280;58548;47.210;8.618;2023-01-30T16:26:39;94702.28;;;11.24;31.39
70902;BME280;58548;47.210;8.618;2023-01-30T16:29:10;94736.03;;;11.49;31.10
70902;BME280;58548;47.210;8.618;2023-01-30T16:31:45;94739.31;;;11.51;31.25
70902;BME280;58548;47.210;8.618;2023-01-30T16:34:31;94781.53;;;11.63;31.01
70902;BME280;58548;47.210;8.618;2023-01-30T16:37:29;94793.81;;;11.63;31.33